Time;durP1;ratioP1;P1;durP2;ratioP2;P2;SDS_P1;SDS_P2;PMS_P1;PMS_P2;Temp;Humidity;BMP_temperature;BMP_pressure;BME280_temperature;BME280_humidity;BME280_pressure;Samples;Min_cycle;Max_cycle;Signal;HPM_P1;HPM_P2
2021/11/17 02:25:51;;;;;;;12.52;8.60;;;23.00;44.30;;;;;;6147944;28;81770;-66
2021/11/17 02:28:52;;;;;;;15.38;10.02;;;23.00;44.90;;;;;;6147723;28;80895;-66
2021/11/17 02:31:54;;;;;;;11.00;8.40;;;23.00;44.20;;;;;;6149984;28;88669;-65
2021/11/17 02:37:55;;;;;;;13.60;8.87;;;23.00;44.10;;;;;;6143978;28;85163;-65
2021/11/17 02:40:56;;;;;;;12.02;8.13;;;23.00;44.10;;;;;;6150849;28;81618;-65
2021/11/17 02:43:56;;;;;;;12.77;8.90;;;23.00;44.30;;;;;;6147608;28;81396;-66
2021/11/17 02:46:57;;;;;;;13.80;9.40;;;23.00;44.10;;;;;;6148749;28;81094;-65
2021/11/17 02:49:58;;;;;;;11.75;8.52;;;23.00;44.20;;;;;;6152541;28;80770;-65
2021/11/17 02:52:58;;;;;;;12.23;8.60;;;23.00;44.20;;;;;;6147875;28;80419;-65
2021/11/17 02:55:59;;;;;;;11.98;8.50;;;23.00;44.10;;;;;;6147327;28;80477;-65
2021/11/17 02:58:59;;;;;;;9.93;7.43;;;23.00;44.10;;;;;;6155185;28;80885;-65
2021/11/17 03:02:00;;;;;;;13.85;9.45;;;23.00;44.10;;;;;;6151630;28;80357;-66
2021/11/17 03:05:00;;;;;;;14.20;8.70;;;23.00;44.10;;;;;;6142465;28;80727;-65
2021/11/17 03:08:01;;;;;;;11.50;8.07;;;23.00;44.10;;;;;;6156667;28;81273;-65
2021/11/17 03:11:01;;;;;;;11.70;8.57;;;23.00;44.00;;;;;;6141929;28;80759;-66
2021/11/17 03:14:02;;;;;;;9.90;7.80;;;23.00;43.90;;;;;;6140012;28;82318;-66
2021/11/17 03:17:02;;;;;;;12.88;8.05;;;23.00;44.20;;;;;;6144210;28;80840;-66
2021/11/17 03:20:03;;;;;;;15.10;9.23;;;23.00;43.90;;;;;;6143124;28;80460;-66
2021/11/17 03:23:03;;;;;;;13.38;9.30;;;23.00;42.90;;;;;;6147702;28;81776;-65
2021/11/17 03:26:04;;;;;;;14.30;9.90;;;23.00;42.70;;;;;;6150966;28;82244;-66
2021/11/17 03:29:06;;;;;;;12.10;9.10;;;23.00;42.20;;;;;;6156527;28;80374;-66
2021/11/17 03:32:07;;;;;;;13.68;9.48;;;23.10;42.20;;;;;;6142096;28;80519;-67
2021/11/17 03:35:07;;;;;;;12.02;8.98;;;23.10;42.00;;;;;;6138915;28;80875;-66
2021/11/17 03:38:08;;;;;;;12.98;9.60;;;23.10;41.80;;;;;;6151019;28;80631;-66
2021/11/17 03:41:08;;;;;;;12.85;8.90;;;23.10;41.40;;;;;;6141973;28;81805;-65
2021/11/17 03:44:09;;;;;;;13.82;10.00;;;23.10;41.30;;;;;;6147513;28;80490;-66
2021/11/17 03:47:10;;;;;;;11.27;8.02;;;23.20;41.20;;;;;;6145035;28;85179;-66
2021/11/17 03:50:10;;;;;;;12.23;8.88;;;23.20;41.00;;;;;;6155378;28;82804;-66
2021/11/17 03:53:11;;;;;;;13.60;9.68;;;23.20;40.80;;;;;;6156276;28;80708;-66
2021/11/17 03:56:11;;;;;;;13.80;9.88;;;23.30;41.00;;;;;;6154097;28;81699;-66
2021/11/17 03:59:12;;;;;;;13.95;9.38;;;23.20;40.70;;;;;;6136852;28;80521;-66
2021/11/17 04:02:12;;;;;;;12.90;9.32;;;23.30;40.60;;;;;;6140593;28;80305;-66
2021/11/17 04:05:13;;;;;;;13.25;9.73;;;23.30;40.60;;;;;;6151990;28;80618;-66
2021/11/17 04:08:13;;;;;;;13.27;9.23;;;23.30;40.40;;;;;;6150899;28;80251;-66
2021/11/17 04:11:14;;;;;;;12.88;9.13;;;23.30;40.40;;;;;;6137751;28;81454;-65
2021/11/17 04:14:15;;;;;;;12.55;9.18;;;23.30;40.30;;;;;;6141668;28;80496;-65
2021/11/17 04:17:15;;;;;;;13.00;9.02;;;23.30;40.40;;;;;;6144290;28;80147;-65
2021/11/17 04:20:16;;;;;;;12.05;8.73;;;23.30;40.10;;;;;;6144734;28;81480;-66
2021/11/17 04:23:16;;;;;;;11.85;9.05;;;23.30;40.20;;;;;;6142921;28;80420;-66
2021/11/17 04:26:18;;;;;;;10.50;8.70;;;23.30;40.10;;;;;;6150634;28;80468;-66
2021/11/17 04:29:19;;;;;;;14.52;9.90;;;23.30;40.60;;;;;;6157873;28;80507;-66
2021/11/17 04:32:19;;;;;;;13.32;9.73;;;23.30;39.90;;;;;;6157112;28;81705;-66
2021/11/17 04:35:20;;;;;;;12.90;9.38;;;23.30;39.90;;;;;;6158153;28;80435;-66
2021/11/17 04:38:20;;;;;;;13.32;9.45;;;23.30;39.80;;;;;;6161823;28;80657;-66
2021/11/17 04:41:21;;;;;;;14.38;9.77;;;23.30;39.80;;;;;;6152944;28;80635;-66
2021/11/17 04:44:21;;;;;;;13.35;9.30;;;23.40;39.80;;;;;;6157997;28;80754;-66
2021/11/17 04:47:22;;;;;;;12.80;9.35;;;23.40;39.60;;;;;;6148485;28;80635;-66
2021/11/17 04:50:22;;;;;;;15.05;10.18;;;23.40;40.20;;;;;;6147493;28;80557;-65
2021/11/17 04:53:23;;;;;;;13.77;9.80;;;23.40;39.40;;;;;;6146197;28;84433;-66
2021/11/17 04:56:23;;;;;;;14.68;9.73;;;23.40;39.40;;;;;;6142266;28;82949;-66
2021/11/17 04:59:24;;;;;;;12.98;9.43;;;23.40;39.40;;;;;;6148414;28;81817;-66
2021/11/17 05:02:24;;;;;;;13.73;9.68;;;23.40;39.40;;;;;;6140690;28;81311;-66
2021/11/17 05:05:25;;;;;;;14.50;10.15;;;23.40;39.40;;;;;;6154521;28;81973;-66
2021/11/17 05:08:25;;;;;;;12.85;10.05;;;23.40;39.20;;;;;;6153323;28;82797;-65
2021/11/17 05:11:26;;;;;;;13.75;9.75;;;23.40;39.20;;;;;;6152735;28;83289;-66
2021/11/17 05:14:26;;;;;;;12.75;8.95;;;23.40;39.10;;;;;;6142120;28;83748;-65
2021/11/17 05:17:27;;;;;;;12.80;9.95;;;23.40;39.10;;;;;;6153897;28;80277;-65
2021/11/17 05:20:27;;;;;;;12.27;9.18;;;23.40;39.10;;;;;;6148432;28;81066;-65
2021/11/17 05:23:28;;;;;;;14.77;10.02;;;23.40;39.20;;;;;;6141316;28;80658;-66
2021/11/17 05:26:28;;;;;;;15.45;10.13;;;23.40;39.10;;;;;;6144993;28;82741;-66
2021/11/17 05:29:29;;;;;;;12.38;9.00;;;23.40;39.20;;;;;;6142099;28;83000;-66
2021/11/17 05:32:29;;;;;;;13.27;9.55;;;23.40;39.10;;;;;;6155060;28;83137;-65
2021/11/17 05:35:30;;;;;;;12.35;9.25;;;23.40;39.20;;;;;;6153196;28;82290;-66
2021/11/17 05:38:30;;;;;;;12.90;9.07;;;23.40;39.10;;;;;;6156122;28;80567;-67
2021/11/17 05:41:31;;;;;;;12.52;9.35;;;23.40;39.20;;;;;;6145263;28;81156;-64
2021/11/17 05:44:31;;;;;;;15.48;10.95;;;23.40;39.10;;;;;;6158355;28;80570;-66
2021/11/17 05:47:32;;;;;;;12.38;8.68;;;23.50;39.20;;;;;;6140504;28;82865;-65
2021/11/17 05:50:32;;;;;;;12.95;8.95;;;23.50;39.00;;;;;;6143082;28;83005;-66
2021/11/17 05:53:34;;;;;;;12.00;9.23;;;23.50;39.30;;;;;;6144825;28;80736;-66
2021/11/17 05:56:35;;;;;;;12.93;9.43;;;23.50;39.60;;;;;;6147427;28;81539;-66
2021/11/17 05:59:35;;;;;;;16.27;9.73;;;23.50;39.40;;;;;;6142898;28;81561;-63
2021/11/17 06:02:36;;;;;;;11.82;8.55;;;23.40;39.80;;;;;;6150459;28;80618;-63
2021/11/17 06:05:36;;;;;;;10.68;7.43;;;23.30;40.90;;;;;;6151617;28;81593;-62
2021/11/17 06:08:37;;;;;;;8.38;6.18;;;23.20;42.10;;;;;;6149348;28;83280;-64
2021/11/17 06:11:37;;;;;;;8.50;6.28;;;23.20;43.20;;;;;;6148296;28;81740;-63
2021/11/17 06:14:38;;;;;;;7.32;5.68;;;23.20;43.90;;;;;;6154441;28;80310;-63
2021/11/17 06:17:38;;;;;;;6.88;5.07;;;23.20;44.70;;;;;;6146029;28;80660;-65
2021/11/17 06:20:39;;;;;;;5.57;4.57;;;23.20;45.40;;;;;;6151565;28;82612;-64
2021/11/17 06:23:41;;;;;;;6.20;4.93;;;23.10;46.00;;;;;;6143612;28;80251;-64
2021/11/17 06:26:42;;;;;;;7.85;4.47;;;23.20;46.70;;;;;;6148070;28;81532;-67
2021/11/17 06:29:43;;;;;;;6.57;4.97;;;23.10;47.30;;;;;;6153056;28;80708;-65
2021/11/17 06:32:43;;;;;;;9.77;5.15;;;23.10;47.70;;;;;;6147021;28;81820;-63
2021/11/17 06:35:44;;;;;;;5.70;4.65;;;23.10;48.00;;;;;;6135641;28;83620;-63
2021/11/17 06:38:44;;;;;;;5.93;4.68;;;23.10;48.50;;;;;;6144725;28;80878;-63
2021/11/17 06:41:45;;;;;;;7.13;4.90;;;23.10;48.50;;;;;;6144279;28;80757;-64
2021/11/17 06:44:45;;;;;;;6.97;4.45;;;23.10;48.70;;;;;;6154453;28;81497;-63
2021/11/17 06:47:46;;;;;;;5.53;4.20;;;23.10;48.80;;;;;;6157649;28;80920;-62
2021/11/17 06:50:46;;;;;;;5.80;4.60;;;23.10;49.10;;;;;;6146594;28;80334;-64
2021/11/17 06:53:47;;;;;;;8.63;4.57;;;23.10;49.10;;;;;;6146771;28;80557;-66
2021/11/17 06:56:47;;;;;;;6.18;4.28;;;23.00;49.50;;;;;;6155895;28;81505;-66
2021/11/17 06:59:48;;;;;;;6.18;4.43;;;23.00;49.50;;;;;;6149486;28;80975;-68
2021/11/17 07:02:48;;;;;;;6.35;4.72;;;23.00;49.60;;;;;;6153832;28;80441;-63
2021/11/17 07:05:49;;;;;;;6.85;5.30;;;23.00;49.30;;;;;;6152422;28;81574;-65
2021/11/17 07:08:49;;;;;;;10.80;5.05;;;23.00;49.10;;;;;;6151548;28;81050;-64
2021/11/17 07:11:50;;;;;;;10.77;6.22;;;23.00;48.50;;;;;;6153822;28;80234;-62
2021/11/17 07:14:50;;;;;;;8.00;5.45;;;23.00;48.10;;;;;;6151594;28;80491;-63
2021/11/17 07:17:51;;;;;;;8.88;5.93;;;23.10;48.20;;;;;;6149647;28;80886;-63
2021/11/17 07:20:51;;;;;;;8.75;6.30;;;23.00;48.50;;;;;;6138656;28;80446;-63
2021/11/17 07:23:52;;;;;;;7.78;5.93;;;23.10;48.10;;;;;;6147181;28;80617;-63
2021/11/17 07:26:52;;;;;;;7.32;5.50;;;23.10;48.50;;;;;;6143180;28;82975;-63
2021/11/17 07:29:54;;;;;;;9.77;6.40;;;23.10;48.20;;;;;;6152652;28;83152;-65
2021/11/17 07:32:55;;;;;;;8.80;6.40;;;23.10;47.90;;;;;;6155190;28;81726;-66
2021/11/17 07:35:55;;;;;;;21.70;7.05;;;23.00;48.00;;;;;;6146059;28;81764;-64
2021/11/17 07:38:56;;;;;;;9.50;6.75;;;23.00;47.30;;;;;;6152260;28;82640;-63
2021/11/17 07:41:56;;;;;;;8.98;6.57;;;23.00;47.90;;;;;;6148008;28;81448;-63
2021/11/17 07:44:57;;;;;;;9.68;6.78;;;23.00;47.70;;;;;;6151775;28;80697;-63
2021/11/17 07:47:57;;;;;;;11.85;6.88;;;23.00;48.10;;;;;;6152714;28;80728;-63
2021/11/17 07:50:58;;;;;;;9.90;6.65;;;23.00;48.00;;;;;;6152748;28;81689;-63
2021/11/17 07:53:58;;;;;;;11.18;7.25;;;23.00;47.70;;;;;;6151829;28;80351;-65
2021/11/17 07:56:59;;;;;;;9.65;6.70;;;23.00;47.70;;;;;;6143483;28;83133;-63
2021/11/17 07:59:59;;;;;;;11.60;7.05;;;23.00;48.30;;;;;;6147690;28;81610;-64
2021/11/17 08:03:00;;;;;;;11.52;7.68;;;23.00;47.70;;;;;;6147664;28;81355;-65
2021/11/17 08:06:00;;;;;;;12.13;7.53;;;23.00;47.60;;;;;;6151791;28;80430;-63
2021/11/17 08:09:01;;;;;;;11.55;8.48;;;23.00;48.20;;;;;;6143214;28;80732;-65
2021/11/17 08:12:01;;;;;;;12.57;7.38;;;23.00;47.80;;;;;;6147712;28;80359;-64
2021/11/17 08:15:02;;;;;;;10.88;7.38;;;23.10;48.20;;;;;;6155322;28;82183;-64
2021/11/17 08:18:02;;;;;;;11.80;8.25;;;23.00;47.70;;;;;;6157004;28;81455;-64
2021/11/17 08:21:03;;;;;;;12.70;7.47;;;23.00;47.70;;;;;;6147145;28;80657;-63
2021/11/17 08:24:03;;;;;;;12.57;7.70;;;23.00;47.70;;;;;;6151153;28;81528;-63
2021/11/17 08:27:04;;;;;;;11.10;7.10;;;23.00;47.80;;;;;;6151644;28;81651;-63
2021/11/17 08:30:04;;;;;;;8.73;7.10;;;23.00;47.50;;;;;;6149134;28;81667;-63
2021/11/17 08:33:05;;;;;;;11.27;7.70;;;23.00;47.70;;;;;;6149056;28;80421;-63
2021/11/17 08:36:05;;;;;;;10.88;8.07;;;23.00;47.30;;;;;;6151955;28;81144;-62
2021/11/17 08:39:06;;;;;;;10.60;7.57;;;23.00;47.30;;;;;;6156107;28;81280;-64
2021/11/17 08:42:07;;;;;;;12.13;8.38;;;23.00;47.20;;;;;;6155028;28;80725;-64
2021/11/17 08:45:07;;;;;;;11.57;7.85;;;23.00;47.00;;;;;;6148755;28;80803;-64
2021/11/17 08:48:08;;;;;;;13.18;8.75;;;23.00;46.80;;;;;;6156381;28;81246;-62
2021/11/17 08:51:08;;;;;;;13.27;9.05;;;23.10;46.50;;;;;;6151109;28;81177;-63
2021/11/17 08:54:09;;;;;;;12.02;8.48;;;23.10;46.80;;;;;;6157164;28;80404;-63
2021/11/17 08:57:09;;;;;;;12.18;7.57;;;23.20;46.60;;;;;;6158644;28;80339;-63
2021/11/17 09:00:10;;;;;;;11.70;7.97;;;23.20;46.20;;;;;;6157621;28;83485;-65
2021/11/17 09:03:10;;;;;;;11.10;7.65;;;23.20;46.20;;;;;;6147116;28;80799;-65
2021/11/17 09:06:11;;;;;;;11.35;7.57;;;23.20;45.90;;;;;;6153031;28;81068;-65
2021/11/17 09:09:11;;;;;;;10.10;7.68;;;23.20;45.50;;;;;;6153446;28;80706;-65
2021/11/17 09:12:12;;;;;;;9.25;7.72;;;23.30;44.90;;;;;;6139603;28;80504;-64
2021/11/17 09:15:12;;;;;;;12.35;7.93;;;23.30;44.90;;;;;;6153809;28;81459;-65
2021/11/17 09:18:13;;;;;;;11.65;7.70;;;23.40;44.50;;;;;;6144268;28;80539;-63
2021/11/17 09:21:13;;;;;;;11.32;7.97;;;23.40;44.00;;;;;;6151359;28;80607;-64
2021/11/17 09:24:15;;;;;;;12.90;9.07;;;23.50;43.70;;;;;;6144172;28;80261;-63
2021/11/17 09:27:15;;;;;;;11.90;9.00;;;23.60;43.80;;;;;;6148790;28;81036;-64
2021/11/17 09:30:18;;;;;;;11.50;8.45;;;23.70;43.60;;;;;;6141672;28;80965;-63
2021/11/17 09:33:19;;;;;;;11.10;8.10;;;23.90;43.60;;;;;;6148241;28;80541;-64
2021/11/17 09:36:19;;;;;;;9.43;7.43;;;24.00;43.50;;;;;;6144568;28;80725;-64
2021/11/17 09:39:20;;;;;;;12.35;8.70;;;24.00;43.30;;;;;;6147793;28;80761;-64
2021/11/17 09:42:20;;;;;;;11.77;7.43;;;24.10;43.30;;;;;;6143020;28;80518;-64
2021/11/17 09:45:21;;;;;;;11.82;7.70;;;24.30;43.30;;;;;;6146819;28;82372;-64
2021/11/17 09:48:21;;;;;;;13.75;10.07;;;24.40;43.00;;;;;;6146360;28;80552;-64
2021/11/17 09:51:22;;;;;;;18.83;12.30;;;24.50;42.00;;;;;;6139960;28;83307;-64
2021/11/17 09:54:24;;;;;;;19.65;13.63;;;24.50;40.90;;;;;;6137955;28;83267;-65
2021/11/17 09:57:24;;;;;;;18.60;12.80;;;24.50;39.20;;;;;;6148670;28;89763;-64
2021/11/17 10:00:25;;;;;;;22.75;13.90;;;24.50;38.80;;;;;;6137833;28;83436;-63
2021/11/17 10:03:25;;;;;;;20.30;14.75;;;24.50;38.50;;;;;;6143617;28;83942;-64
2021/11/17 10:09:47;;;;;;;18.92;13.05;;;24.60;38.20;;;;;;6138437;28;84460;-65
2021/11/17 10:12:56;;;;;;;15.00;11.23;;;24.70;38.30;;;;;;6139857;28;90259;-64
2021/11/17 10:15:56;;;;;;;18.05;11.57;;;24.70;38.60;;;;;;6137831;28;85607;-64
2021/11/17 10:18:57;;;;;;;16.27;10.68;;;24.80;38.90;;;;;;6144626;28;83642;-64
2021/11/17 10:21:57;;;;;;;17.75;11.35;;;24.90;39.10;;;;;;6141050;28;83288;-65
2021/11/17 10:24:58;;;;;;;14.23;9.63;;;25.10;39.50;;;;;;6149530;28;83551;-64
2021/11/17 10:27:58;;;;;;;16.00;11.05;;;25.20;39.50;;;;;;6151313;28;82838;-63
2021/11/17 10:30:59;;;;;;;16.30;10.93;;;25.20;39.60;;;;;;6140598;28;83141;-63
2021/11/17 10:33:59;;;;;;;15.25;10.20;;;25.30;40.10;;;;;;6145052;28;83184;-63
2021/11/17 10:37:00;;;;;;;13.50;9.43;;;25.30;40.00;;;;;;6145286;28;83065;-63
2021/11/17 10:40:00;;;;;;;16.25;8.43;;;25.30;40.20;;;;;;6139667;28;82742;-66
2021/11/17 10:43:01;;;;;;;17.35;9.98;;;25.40;40.30;;;;;;6153154;28;80593;-63
2021/11/17 10:46:01;;;;;;;14.38;8.70;;;25.40;40.20;;;;;;6137810;28;83153;-64
2021/11/17 10:49:02;;;;;;;13.35;8.85;;;25.50;40.30;;;;;;6149762;28;83213;-65
2021/11/17 10:52:02;;;;;;;12.20;8.70;;;25.50;40.30;;;;;;6148549;28;81148;-65
2021/11/17 10:55:03;;;;;;;11.98;8.10;;;25.50;40.30;;;;;;6145055;28;80800;-64
2021/11/17 10:58:04;;;;;;;12.90;8.10;;;25.50;40.60;;;;;;6154615;28;80816;-64
2021/11/17 11:01:05;;;;;;;12.05;8.40;;;25.50;40.60;;;;;;6145831;28;81970;-64
2021/11/17 11:04:07;;;;;;;10.60;8.00;;;25.50;40.90;;;;;;6147108;28;80404;-64
2021/11/17 11:07:07;;;;;;;13.35;8.40;;;25.50;40.90;;;;;;6150722;28;80603;-65
2021/11/17 11:10:08;;;;;;;13.27;8.65;;;25.50;40.80;;;;;;6140355;28;80638;-64
2021/11/17 11:13:08;;;;;;;13.02;8.00;;;25.60;40.90;;;;;;6139196;28;80089;-64
2021/11/17 11:16:09;;;;;;;11.40;7.22;;;25.60;40.90;;;;;;6146819;28;80555;-63
2021/11/17 11:19:09;;;;;;;11.43;7.95;;;25.60;41.00;;;;;;6150840;28;80224;-64
2021/11/17 11:22:10;;;;;;;14.43;8.27;;;25.60;40.90;;;;;;6139177;28;81337;-64
2021/11/17 11:25:10;;;;;;;12.77;8.70;;;25.60;41.10;;;;;;6143421;28;80400;-64
2021/11/17 11:28:11;;;;;;;23.20;9.90;;;25.60;41.30;;;;;;6140620;28;81214;-69
2021/11/17 11:31:11;;;;;;;16.92;9.70;;;25.60;41.30;;;;;;6151878;28;80819;-63
2021/11/17 11:34:12;;;;;;;19.05;9.63;;;25.60;41.10;;;;;;6148184;28;80900;-64
2021/11/17 11:37:12;;;;;;;16.40;9.30;;;25.60;41.50;;;;;;6154732;28;81800;-64
2021/11/17 11:40:13;;;;;;;19.27;9.55;;;25.60;41.30;;;;;;6149645;28;82421;-64
2021/11/17 11:43:13;;;;;;;17.73;9.70;;;25.60;41.60;;;;;;6152688;28;80495;-64
2021/11/17 11:46:14;;;;;;;18.60;8.25;;;25.60;41.50;;;;;;6152092;28;80320;-64
2021/11/17 11:49:15;;;;;;;11.15;8.27;;;25.70;41.30;;;;;;6155892;28;81165;-64
2021/11/17 11:52:15;;;;;;;13.85;8.50;;;25.70;40.90;;;;;;6145096;28;80996;-68
2021/11/17 11:55:16;;;;;;;14.77;8.32;;;25.70;40.80;;;;;;6144560;28;80330;-65
2021/11/17 11:58:16;;;;;;;11.18;8.02;;;25.70;41.10;;;;;;6150370;28;80653;-64
2021/11/17 12:01:17;;;;;;;9.82;7.25;;;25.70;40.90;;;;;;6146489;28;80594;-63
2021/11/17 12:04:17;;;;;;;9.80;7.45;;;25.70;40.80;;;;;;6154099;28;80427;-65
2021/11/17 12:07:19;;;;;;;11.02;7.82;;;25.70;40.90;;;;;;6147792;28;80866;-65
2021/11/17 12:10:19;;;;;;;11.18;7.70;;;25.70;41.00;;;;;;6149105;28;80551;-65
2021/11/17 12:13:20;;;;;;;10.38;7.35;;;25.70;40.90;;;;;;6147476;28;82621;-64
2021/11/17 12:16:20;;;;;;;12.30;7.47;;;25.70;40.90;;;;;;6156278;28;81020;-64
2021/11/17 12:19:21;;;;;;;11.95;8.20;;;25.80;40.90;;;;;;6150357;28;80715;-66
2021/11/17 12:22:21;;;;;;;11.00;8.05;;;25.80;40.90;;;;;;6150493;28;80947;-63
2021/11/17 12:25:22;;;;;;;10.05;7.93;;;25.80;40.90;;;;;;6150636;28;80236;-65
2021/11/17 12:28:22;;;;;;;13.63;7.82;;;25.80;40.80;;;;;;6141148;28;80460;-64
2021/11/17 12:31:24;;;;;;;10.20;7.35;;;25.80;40.70;;;;;;6143669;28;80401;-67
2021/11/17 12:34:25;;;;;;;11.05;7.10;;;25.80;40.80;;;;;;6157137;28;81663;-64
2021/11/17 12:37:25;;;;;;;10.27;7.72;;;25.80;40.70;;;;;;6145518;28;80446;-64
2021/11/17 12:40:26;;;;;;;10.45;8.10;;;25.80;40.70;;;;;;6148125;28;80620;-66
2021/11/17 12:43:26;;;;;;;10.35;7.25;;;25.70;40.90;;;;;;6156190;28;80449;-67
2021/11/17 12:46:27;;;;;;;10.30;8.27;;;25.60;41.10;;;;;;6145455;28;80422;-66
2021/11/17 12:49:27;;;;;;;12.13;8.68;;;25.60;40.70;;;;;;6155352;28;81442;-67
2021/11/17 12:52:29;;;;;;;10.77;8.10;;;25.50;40.80;;;;;;6151029;28;80303;-67
2021/11/17 12:55:30;;;;;;;15.23;9.02;;;25.50;40.90;;;;;;6146069;28;83335;-67
2021/11/17 12:58:33;;;;;;;16.02;9.60;;;25.30;40.80;;;;;;6148688;28;80669;-66
2021/11/17 13:01:34;;;;;;;13.02;8.40;;;25.30;41.20;;;;;;6152156;28;80598;-64
2021/11/17 13:04:35;;;;;;;11.68;9.30;;;25.20;41.00;;;;;;6147446;28;80914;-67
2021/11/17 13:07:36;;;;;;;13.27;9.55;;;25.10;41.10;;;;;;6143729;28;80967;-66
2021/11/17 13:10:38;;;;;;;12.13;9.05;;;25.00;41.30;;;;;;6150574;28;80786;-65
2021/11/17 13:13:39;;;;;;;12.93;8.90;;;24.90;41.70;;;;;;6153620;28;80539;-65
2021/11/17 13:16:39;;;;;;;10.23;8.52;;;24.90;42.40;;;;;;6153666;28;80572;-66
2021/11/17 13:19:40;;;;;;;12.07;9.10;;;24.80;42.60;;;;;;6144056;28;82323;-67
2021/11/17 13:22:41;;;;;;;16.23;9.30;;;24.80;42.30;;;;;;6146907;28;82869;-67
2021/11/17 13:25:41;;;;;;;14.55;8.55;;;24.70;42.60;;;;;;6156633;28;81551;-67
2021/11/17 13:28:42;;;;;;;12.25;8.70;;;24.70;42.60;;;;;;6156090;28;80735;-65
2021/11/17 13:31:44;;;;;;;12.93;9.15;;;24.60;42.50;;;;;;6156507;28;80480;-66
2021/11/17 13:34:44;;;;;;;14.38;10.25;;;24.60;42.70;;;;;;6155525;28;80932;-66
2021/11/17 13:37:46;;;;;;;21.67;14.73;;;24.50;42.80;;;;;;6150911;28;83150;-66
2021/11/17 13:40:46;;;;;;;21.67;14.07;;;24.50;41.90;;;;;;6152898;28;83679;-65
2021/11/17 13:43:47;;;;;;;20.20;14.40;;;24.40;41.30;;;;;;6151966;28;83833;-66
2021/11/17 13:46:47;;;;;;;22.02;15.70;;;24.40;40.80;;;;;;6153604;28;83526;-65
2021/11/17 13:49:48;;;;;;;22.17;15.18;;;24.30;40.70;;;;;;6143869;28;83197;-66
2021/11/17 13:52:49;;;;;;;21.67;15.02;;;24.30;40.90;;;;;;6150457;28;83764;-66
2021/11/17 13:55:49;;;;;;;20.55;13.60;;;24.30;41.10;;;;;;6149895;28;83664;-65
2021/11/17 13:58:50;;;;;;;19.00;13.23;;;24.30;41.90;;;;;;6148508;28;86022;-66
2021/11/17 14:01:52;;;;;;;15.32;11.65;;;24.30;41.10;;;;;;6148384;28;84291;-65
2021/11/17 14:04:52;;;;;;;14.48;9.98;;;24.00;41.50;;;;;;6152204;28;84032;-66
2021/11/17 14:07:53;;;;;;;16.70;10.25;;;24.00;41.90;;;;;;6144971;28;84058;-64
2021/11/17 14:10:53;;;;;;;12.85;9.00;;;23.90;42.00;;;;;;6150254;28;83292;-65
2021/11/17 14:13:54;;;;;;;13.00;9.00;;;23.90;42.90;;;;;;6155794;28;84074;-65
2021/11/17 14:16:54;;;;;;;11.45;8.10;;;23.90;43.80;;;;;;6153462;28;80880;-64
2021/11/17 14:19:58;;;;;;;11.43;7.30;;;23.90;45.00;;;;;;6154054;28;85450;-63
2021/11/17 14:22:58;;;;;;;12.13;8.32;;;23.90;45.80;;;;;;6154982;28;80451;-66
2021/11/17 14:25:59;;;;;;;11.20;7.72;;;23.80;46.60;;;;;;6154411;28;80751;-64
2021/11/17 14:29:00;;;;;;;10.68;6.82;;;23.90;47.30;;;;;;6152475;28;80338;-65
2021/11/17 14:32:00;;;;;;;7.25;6.20;;;23.90;47.80;;;;;;6152911;28;80383;-65
2021/11/17 14:35:01;;;;;;;12.75;8.77;;;23.80;48.50;;;;;;6152950;28;81784;-65
2021/11/17 14:38:02;;;;;;;10.27;7.65;;;23.80;48.50;;;;;;6146203;28;82612;-64
2021/11/17 14:41:03;;;;;;;10.77;6.72;;;23.80;49.10;;;;;;6150265;28;80506;-65
2021/11/17 14:44:03;;;;;;;9.93;7.05;;;23.80;49.60;;;;;;6149360;28;81189;-65
2021/11/17 14:47:04;;;;;;;10.10;7.50;;;23.80;49.80;;;;;;6152343;28;80672;-64
2021/11/17 14:50:07;;;;;;;11.65;8.02;;;23.80;50.10;;;;;;6150464;28;80337;-65
2021/11/17 14:53:07;;;;;;;8.75;6.63;;;23.70;50.30;;;;;;6150648;28;80269;-66
2021/11/17 14:56:08;;;;;;;12.93;8.73;;;23.80;49.90;;;;;;6152730;28;81294;-65
2021/11/17 14:59:08;;;;;;;12.82;9.45;;;23.80;49.70;;;;;;6149313;28;81479;-64
2021/11/17 15:02:09;;;;;;;26.13;12.40;;;23.80;49.60;;;;;;6147986;28;81368;-66
2021/11/17 15:05:09;;;;;;;45.85;17.42;;;23.80;49.30;;;;;;6149175;28;83330;-65
2021/11/17 15:08:10;;;;;;;57.08;18.20;;;23.90;48.90;;;;;;6148607;28;83212;-66
2021/11/17 15:11:10;;;;;;;55.72;20.40;;;23.90;49.40;;;;;;6146461;28;83817;-63
2021/11/17 15:14:11;;;;;;;55.83;18.27;;;23.90;49.00;;;;;;6146381;28;83429;-65
2021/11/17 15:17:11;;;;;;;48.88;18.52;;;23.90;49.50;;;;;;6141366;28;84221;-64
2021/11/17 15:20:12;;;;;;;39.53;16.88;;;24.00;49.30;;;;;;6150011;28;84216;-64
2021/11/17 15:23:12;;;;;;;34.40;15.90;;;23.90;49.50;;;;;;6143204;28;83538;-64
2021/11/17 15:26:13;;;;;;;45.15;16.40;;;24.00;49.40;;;;;;6149002;28;83994;-64
2021/11/17 15:29:13;;;;;;;35.03;16.23;;;24.00;49.60;;;;;;6142357;28;82901;-64
2021/11/17 15:32:18;;;;;;;43.70;17.13;;;23.90;49.40;;;;;;6151506;28;83558;-63
2021/11/17 15:35:18;;;;;;;28.80;14.63;;;23.90;49.50;;;;;;6146993;28;83981;-64
2021/11/17 15:38:19;;;;;;;30.65;15.68;;;23.90;50.00;;;;;;6144611;28;83910;-64
2021/11/17 15:41:20;;;;;;;31.98;14.80;;;23.90;49.80;;;;;;6148161;28;83263;-66
2021/11/17 15:44:20;;;;;;;32.17;14.02;;;24.00;49.70;;;;;;6151994;28;83075;-65
2021/11/17 15:47:25;;;;;;;29.48;14.68;;;23.90;49.20;;;;;;6149588;28;83960;-65
2021/11/17 15:50:25;;;;;;;25.98;13.98;;;24.00;49.70;;;;;;6144995;28;82981;-64
2021/11/17 15:53:26;;;;;;;27.50;14.00;;;24.00;50.20;;;;;;6142911;28;83475;-65
2021/11/17 15:56:26;;;;;;;24.83;14.45;;;24.00;49.40;;;;;;6146621;28;82908;-65
2021/11/17 15:59:27;;;;;;;29.00;13.80;;;24.00;49.60;;;;;;6140934;28;83422;-65
2021/11/17 16:02:27;;;;;;;27.17;14.85;;;24.00;49.20;;;;;;6149579;28;83148;-66
2021/11/17 16:05:28;;;;;;;25.20;14.43;;;23.90;49.60;;;;;;6146094;28;83218;-66
2021/11/17 16:08:28;;;;;;;23.65;13.35;;;23.90;49.30;;;;;;6146997;28;83140;-66
2021/11/17 16:11:29;;;;;;;24.88;13.80;;;23.90;50.10;;;;;;6149913;28;84512;-66
2021/11/17 16:14:30;;;;;;;23.10;12.95;;;23.90;48.60;;;;;;6143111;28;83175;-66
2021/11/17 16:17:32;;;;;;;26.05;13.27;;;23.90;49.80;;;;;;6142257;28;86066;-65
2021/11/17 16:20:39;;;;;;;27.20;13.88;;;23.90;49.50;;;;;;6149293;28;85032;-65
2021/11/17 16:26:40;;;;;;;29.50;13.85;;;24.00;49.60;;;;;;6147839;28;86067;-64
2021/11/17 16:29:40;;;;;;;22.83;13.40;;;23.90;48.70;;;;;;6147883;28;83011;-66
2021/11/17 16:32:41;;;;;;;24.75;13.15;;;23.90;49.40;;;;;;6147590;28;83550;-67
2021/11/17 16:35:41;;;;;;;24.30;13.70;;;23.90;49.40;;;;;;6147210;28;84034;-66
2021/11/17 16:38:43;;;;;;;24.40;13.25;;;23.90;49.50;;;;;;6144714;28;85525;-67
2021/11/17 16:41:43;;;;;;;21.85;12.48;;;23.90;50.50;;;;;;6147438;28;83569;-66
2021/11/17 16:44:44;;;;;;;24.55;14.40;;;23.90;50.30;;;;;;6151454;28;85746;-65
2021/11/17 16:47:44;;;;;;;26.77;12.85;;;23.90;49.60;;;;;;6144306;28;83901;-65
2021/11/17 16:50:45;;;;;;;19.85;12.43;;;23.90;49.60;;;;;;6143712;28;83654;-66
2021/11/17 16:53:45;;;;;;;19.08;12.25;;;23.90;49.80;;;;;;6150439;28;82931;-65
2021/11/17 16:56:46;;;;;;;24.63;11.63;;;23.90;49.80;;;;;;6153856;28;83684;-65
2021/11/17 16:59:46;;;;;;;23.50;13.07;;;23.90;49.80;;;;;;6151890;28;84670;-65
2021/11/17 17:02:47;;;;;;;20.67;12.73;;;23.90;50.10;;;;;;6154906;28;84152;-64
2021/11/17 17:05:47;;;;;;;20.00;12.15;;;23.90;50.60;;;;;;6148424;28;83451;-65
2021/11/17 17:08:48;;;;;;;16.60;11.35;;;23.90;49.70;;;;;;6148001;28;84185;-66
2021/11/17 17:11:49;;;;;;;17.38;10.38;;;23.90;49.70;;;;;;6146988;28;82947;-67
2021/11/17 17:14:49;;;;;;;25.58;13.18;;;23.80;50.20;;;;;;6148901;28;83765;-66
2021/11/17 17:17:50;;;;;;;19.42;11.57;;;23.90;49.80;;;;;;6148858;28;84449;-65
2021/11/17 17:20:50;;;;;;;20.25;11.63;;;23.90;50.00;;;;;;6156702;28;84402;-68
2021/11/17 17:23:51;;;;;;;18.35;11.63;;;23.80;50.00;;;;;;6152009;28;83804;-68
2021/11/17 17:26:51;;;;;;;16.55;10.43;;;23.80;49.80;;;;;;6147727;28;83438;-65
2021/11/17 17:29:52;;;;;;;25.92;12.70;;;23.80;49.90;;;;;;6145816;28;82966;-66
2021/11/17 17:32:52;;;;;;;24.35;12.68;;;23.80;49.70;;;;;;6149173;28;84196;-68
2021/11/17 17:35:53;;;;;;;15.57;11.07;;;23.80;50.40;;;;;;6149099;28;83217;-67
2021/11/17 17:38:53;;;;;;;23.98;12.32;;;23.80;50.50;;;;;;6145336;28;83835;-66
2021/11/17 17:41:56;;;;;;;22.10;11.30;;;23.80;49.90;;;;;;6141094;28;83998;-67
2021/11/17 17:44:56;;;;;;;16.58;11.50;;;23.80;49.90;;;;;;6146908;28;85675;-66
2021/11/17 17:47:57;;;;;;;17.25;11.93;;;23.80;49.90;;;;;;6148215;28;83266;-68
2021/11/17 17:50:57;;;;;;;15.02;11.15;;;23.80;50.10;;;;;;6151511;28;83015;-67
2021/11/17 17:53:59;;;;;;;19.75;12.70;;;23.80;50.00;;;;;;6152956;28;84657;-64
2021/11/17 17:57:00;;;;;;;19.10;12.55;;;23.80;49.80;;;;;;6148154;28;84282;-64
2021/11/17 18:00:00;;;;;;;21.52;13.50;;;23.80;49.80;;;;;;6151104;28;83644;-64